sensor_id;sensor_type;location;lat;lon;timestamp;temperature;humidity
12384;DHT22;6256;63.808;20.336;2024-03-07T00:00:28;-1.70;99.90
12384;DHT22;6256;63.808;20.336;2024-03-07T00:02:54;-1.70;99.90
12384;DHT22;6256;63.808;20.336;2024-03-07T00:05:21;-1.70;99.90
12384;DHT22;6256;63.808;20.336;2024-03-07T00:07:49;-1.70;99.90
12384;DHT22;6256;63.808;20.336;2024-03-07T00:10:15;-1.70;99.90
12384;DHT22;6256;63.808;20.336;2024-03-07T00:12:42;-1.70;99.90
12384;DHT22;6256;63.808;20.336;2024-03-07T00:15:09;-1.70;99.90
12384;DHT22;6256;63.808;20.336;2024-03-07T00:17:37;-1.70;99.90
12384;DHT22;6256;63.808;20.336;2024-03-07T00:20:03;-1.70;99.90
12384;DHT22;6256;63.808;20.336;2024-03-07T00:22:30;-1.80;99.90
12384;DHT22;6256;63.808;20.336;2024-03-07T00:24:56;-1.70;99.90
12384;DHT22;6256;63.808;20.336;2024-03-07T00:27:23;-1.70;99.90
12384;DHT22;6256;63.808;20.336;2024-03-07T00:29:49;-1.70;99.90
12384;DHT22;6256;63.808;20.336;2024-03-07T00:32:22;-1.80;99.90
12384;DHT22;6256;63.808;20.336;2024-03-07T00:34:49;-1.80;99.90
12384;DHT22;6256;63.808;20.336;2024-03-07T00:37:16;-1.80;99.90
12384;DHT22;6256;63.808;20.336;2024-03-07T00:39:42;-1.90;99.90
12384;DHT22;6256;63.808;20.336;2024-03-07T00:42:08;-1.90;99.90
12384;DHT22;6256;63.808;20.336;2024-03-07T00:44:34;-2.00;99.90
12384;DHT22;6256;63.808;20.336;2024-03-07T00:47:01;-2.00;99.90
12384;DHT22;6256;63.808;20.336;2024-03-07T00:49:30;-1.90;99.90
12384;DHT22;6256;63.808;20.336;2024-03-07T00:51:57;-1.90;99.90
12384;DHT22;6256;63.808;20.336;2024-03-07T00:54:23;-1.90;99.90
12384;DHT22;6256;63.808;20.336;2024-03-07T00:56:49;-2.00;99.90
12384;DHT22;6256;63.808;20.336;2024-03-07T00:59:15;-2.00;99.90
12384;DHT22;6256;63.808;20.336;2024-03-07T01:01:41;-2.00;99.90
12384;DHT22;6256;63.808;20.336;2024-03-07T01:04:07;-2.00;99.90
12384;DHT22;6256;63.808;20.336;2024-03-07T01:06:34;-2.00;99.90
12384;DHT22;6256;63.808;20.336;2024-03-07T01:09:00;-1.90;99.90
12384;DHT22;6256;63.808;20.336;2024-03-07T01:11:25;-1.90;99.90
12384;DHT22;6256;63.808;20.336;2024-03-07T01:13:51;-1.90;99.90
12384;DHT22;6256;63.808;20.336;2024-03-07T01:16:17;-1.90;99.90
12384;DHT22;6256;63.808;20.336;2024-03-07T01:18:43;-1.90;99.90
12384;DHT22;6256;63.808;20.336;2024-03-07T01:21:08;-2.00;99.90
12384;DHT22;6256;63.808;20.336;2024-03-07T01:23:35;-2.00;99.90
12384;DHT22;6256;63.808;20.336;2024-03-07T01:26:01;-2.00;99.90
12384;DHT22;6256;63.808;20.336;2024-03-07T01:28:28;-2.10;99.90
12384;DHT22;6256;63.808;20.336;2024-03-07T01:30:56;-2.10;99.90
12384;DHT22;6256;63.808;20.336;2024-03-07T01:33:22;-2.10;99.90
12384;DHT22;6256;63.808;20.336;2024-03-07T01:35:48;-2.10;99.90
12384;DHT22;6256;63.808;20.336;2024-03-07T01:38:15;-2.10;99.90
12384;DHT22;6256;63.808;20.336;2024-03-07T01:40:41;-2.20;99.90
12384;DHT22;6256;63.808;20.336;2024-03-07T01:43:08;-2.20;99.90
12384;DHT22;6256;63.808;20.336;2024-03-07T01:45:34;-2.20;99.90
12384;DHT22;6256;63.808;20.336;2024-03-07T01:48:02;-2.30;99.90
12384;DHT22;6256;63.808;20.336;2024-03-07T01:50:28;-2.30;99.90
12384;DHT22;6256;63.808;20.336;2024-03-07T01:52:54;-2.40;99.90
12384;DHT22;6256;63.808;20.336;2024-03-07T01:55:22;-2.40;99.90
12384;DHT22;6256;63.808;20.336;2024-03-07T01:57:49;-2.40;99.90
12384;DHT22;6256;63.808;20.336;2024-03-07T02:00:15;-2.40;99.90
12384;DHT22;6256;63.808;20.336;2024-03-07T02:02:42;-2.40;99.90
12384;DHT22;6256;63.808;20.336;2024-03-07T02:05:08;-2.30;99.90
12384;DHT22;6256;63.808;20.336;2024-03-07T02:07:33;-2.30;99.90
12384;DHT22;6256;63.808;20.336;2024-03-07T02:10:03;-2.30;99.90
12384;DHT22;6256;63.808;20.336;2024-03-07T02:12:32;-2.30;99.90
12384;DHT22;6256;63.808;20.336;2024-03-07T02:14:58;-2.30;99.90
12384;DHT22;6256;63.808;20.336;2024-03-07T02:17:27;-2.30;99.90
12384;DHT22;6256;63.808;20.336;2024-03-07T02:19:53;-2.30;99.90
12384;DHT22;6256;63.808;20.336;2024-03-07T02:22:19;-2.30;99.90
12384;DHT22;6256;63.808;20.336;2024-03-07T02:24:46;-2.30;99.90
12384;DHT22;6256;63.808;20.336;2024-03-07T02:27:12;-2.40;99.90
12384;DHT22;6256;63.808;20.336;2024-03-07T02:29:40;-2.40;99.90
12384;DHT22;6256;63.808;20.336;2024-03-07T02:32:06;-2.50;99.90
12384;DHT22;6256;63.808;20.336;2024-03-07T02:34:32;-2.40;99.90
12384;DHT22;6256;63.808;20.336;2024-03-07T02:36:58;-2.30;99.90
12384;DHT22;6256;63.808;20.336;2024-03-07T02:39:24;-2.30;99.90
12384;DHT22;6256;63.808;20.336;2024-03-07T02:41:52;-2.30;99.90
12384;DHT22;6256;63.808;20.336;2024-03-07T02:44:18;-2.20;99.90
12384;DHT22;6256;63.808;20.336;2024-03-07T02:46:45;-2.20;99.90
12384;DHT22;6256;63.808;20.336;2024-03-07T02:49:11;-2.20;99.90
12384;DHT22;6256;63.808;20.336;2024-03-07T02:51:36;-2.20;99.90
12384;DHT22;6256;63.808;20.336;2024-03-07T02:54:02;-2.10;99.90
12384;DHT22;6256;63.808;20.336;2024-03-07T02:56:31;-2.10;99.90
12384;DHT22;6256;63.808;20.336;2024-03-07T02:58:57;-2.10;99.90
12384;DHT22;6256;63.808;20.336;2024-03-07T03:01:23;-2.10;99.90
12384;DHT22;6256;63.808;20.336;2024-03-07T03:03:49;-2.10;99.90
12384;DHT22;6256;63.808;20.336;2024-03-07T03:06:14;-2.20;99.90
12384;DHT22;6256;63.808;20.336;2024-03-07T03:08:40;-2.30;99.90
12384;DHT22;6256;63.808;20.336;2024-03-07T03:11:05;-2.30;99.90
12384;DHT22;6256;63.808;20.336;2024-03-07T03:13:37;-2.30;99.90
12384;DHT22;6256;63.808;20.336;2024-03-07T03:16:04;-2.30;99.90
12384;DHT22;6256;63.808;20.336;2024-03-07T03:18:32;-2.30;99.90
12384;DHT22;6256;63.808;20.336;2024-03-07T03:21:02;-2.30;99.90
12384;DHT22;6256;63.808;20.336;2024-03-07T03:23:31;-2.30;99.90
12384;DHT22;6256;63.808;20.336;2024-03-07T03:25:57;-2.30;99.90
12384;DHT22;6256;63.808;20.336;2024-03-07T03:28:23;-2.30;99.90
12384;DHT22;6256;63.808;20.336;2024-03-07T03:30:49;-2.20;99.90
12384;DHT22;6256;63.808;20.336;2024-03-07T03:33:18;-2.20;99.90
12384;DHT22;6256;63.808;20.336;2024-03-07T03:35:44;-2.30;99.90
12384;DHT22;6256;63.808;20.336;2024-03-07T03:38:10;-2.30;99.90
12384;DHT22;6256;63.808;20.336;2024-03-07T03:40:36;-2.30;99.90
12384;DHT22;6256;63.808;20.336;2024-03-07T03:43:02;-2.30;99.90
12384;DHT22;6256;63.808;20.336;2024-03-07T03:45:28;-2.40;99.90
12384;DHT22;6256;63.808;20.336;2024-03-07T03:47:54;-2.30;99.90
12384;DHT22;6256;63.808;20.336;2024-03-07T03:50:20;-2.30;99.90
12384;DHT22;6256;63.808;20.336;2024-03-07T03:52:48;-2.30;99.90
12384;DHT22;6256;63.808;20.336;2024-03-07T03:55:14;-2.40;99.90
12384;DHT22;6256;63.808;20.336;2024-03-07T03:57:44;-2.40;99.90
12384;DHT22;6256;63.808;20.336;2024-03-07T04:00:10;-2.40;99.90
12384;DHT22;6256;63.808;20.336;2024-03-07T04:05:05;-2.50;99.90
12384;DHT22;6256;63.808;20.336;2024-03-07T04:07:31;-2.50;99.90
12384;DHT22;6256;63.808;20.336;2024-03-07T04:09:57;-2.50;99.90
12384;DHT22;6256;63.808;20.336;2024-03-07T04:12:29;-2.40;99.90
12384;DHT22;6256;63.808;20.336;2024-03-07T04:14:54;-2.40;99.90
12384;DHT22;6256;63.808;20.336;2024-03-07T04:17:21;-2.50;99.90
12384;DHT22;6256;63.808;20.336;2024-03-07T04:19:47;-2.40;99.90
12384;DHT22;6256;63.808;20.336;2024-03-07T04:22:13;-2.40;99.90
12384;DHT22;6256;63.808;20.336;2024-03-07T04:24:39;-2.50;99.90
12384;DHT22;6256;63.808;20.336;2024-03-07T04:27:06;-2.40;99.90
12384;DHT22;6256;63.808;20.336;2024-03-07T04:29:35;-2.40;99.90
12384;DHT22;6256;63.808;20.336;2024-03-07T04:32:02;-2.50;99.90
12384;DHT22;6256;63.808;20.336;2024-03-07T04:34:29;-2.50;99.90
12384;DHT22;6256;63.808;20.336;2024-03-07T04:36:59;-2.60;99.90
12384;DHT22;6256;63.808;20.336;2024-03-07T04:39:27;-2.70;99.90
12384;DHT22;6256;63.808;20.336;2024-03-07T04:42:01;-2.70;99.90
12384;DHT22;6256;63.808;20.336;2024-03-07T04:44:28;-2.70;99.90
12384;DHT22;6256;63.808;20.336;2024-03-07T04:46:54;-2.70;99.90
12384;DHT22;6256;63.808;20.336;2024-03-07T04:49:27;-2.80;99.90
12384;DHT22;6256;63.808;20.336;2024-03-07T04:51:54;-2.70;99.90
12384;DHT22;6256;63.808;20.336;2024-03-07T04:54:21;-2.70;99.90
12384;DHT22;6256;63.808;20.336;2024-03-07T04:56:47;-2.60;99.90
12384;DHT22;6256;63.808;20.336;2024-03-07T04:59:14;-2.60;99.90
12384;DHT22;6256;63.808;20.336;2024-03-07T05:01:40;-2.60;99.90
12384;DHT22;6256;63.808;20.336;2024-03-07T05:04:06;-2.60;99.90
12384;DHT22;6256;63.808;20.336;2024-03-07T05:06:32;-2.60;99.90
12384;DHT22;6256;63.808;20.336;2024-03-07T05:09:00;-2.60;99.90
12384;DHT22;6256;63.808;20.336;2024-03-07T05:11:28;-2.50;99.90
12384;DHT22;6256;63.808;20.336;2024-03-07T05:13:53;-2.50;99.90
12384;DHT22;6256;63.808;20.336;2024-03-07T05:16:20;-2.50;99.90
12384;DHT22;6256;63.808;20.336;2024-03-07T05:18:45;-2.60;99.90
12384;DHT22;6256;63.808;20.336;2024-03-07T05:21:12;-2.60;99.90
12384;DHT22;6256;63.808;20.336;2024-03-07T05:23:56;-2.60;99.90
12384;DHT22;6256;63.808;20.336;2024-03-07T05:26:23;-2.60;99.90
12384;DHT22;6256;63.808;20.336;2024-03-07T05:28:49;-2.70;99.90
12384;DHT22;6256;63.808;20.336;2024-03-07T05:31:15;-2.70;99.90
12384;DHT22;6256;63.808;20.336;2024-03-07T05:33:46;-2.70;99.90
12384;DHT22;6256;63.808;20.336;2024-03-07T05:36:12;-2.60;99.90
12384;DHT22;6256;63.808;20.336;2024-03-07T05:38:44;-2.60;99.90
12384;DHT22;6256;63.808;20.336;2024-03-07T05:41:13;-2.60;99.90
12384;DHT22;6256;63.808;20.336;2024-03-07T05:43:39;-2.60;99.90
12384;DHT22;6256;63.808;20.336;2024-03-07T05:46:05;-2.60;99.90
12384;DHT22;6256;63.808;20.336;2024-03-07T05:48:32;-2.50;99.90
12384;DHT22;6256;63.808;20.336;2024-03-07T05:50:59;-2.50;99.90
12384;DHT22;6256;63.808;20.336;2024-03-07T05:53:25;-2.50;99.90
12384;DHT22;6256;63.808;20.336;2024-03-07T05:55:51;-2.50;99.90
12384;DHT22;6256;63.808;20.336;2024-03-07T05:58:16;-2.60;99.90
12384;DHT22;6256;63.808;20.336;2024-03-07T06:00:48;-2.70;99.90
12384;DHT22;6256;63.808;20.336;2024-03-07T06:03:20;-2.70;99.90
12384;DHT22;6256;63.808;20.336;2024-03-07T06:05:46;-2.80;99.90
12384;DHT22;6256;63.808;20.336;2024-03-07T06:08:19;-2.90;99.90
12384;DHT22;6256;63.808;20.336;2024-03-07T06:10:45;-2.90;99.90
12384;DHT22;6256;63.808;20.336;2024-03-07T06:13:13;-3.00;99.90
12384;DHT22;6256;63.808;20.336;2024-03-07T06:15:39;-3.00;99.90
12384;DHT22;6256;63.808;20.336;2024-03-07T06:18:05;-3.00;99.90
12384;DHT22;6256;63.808;20.336;2024-03-07T06:20:33;-3.00;99.90
12384;DHT22;6256;63.808;20.336;2024-03-07T06:23:01;-3.00;99.90
12384;DHT22;6256;63.808;20.336;2024-03-07T06:25:34;-3.00;99.90
12384;DHT22;6256;63.808;20.336;2024-03-07T06:28:03;-3.00;99.90
12384;DHT22;6256;63.808;20.336;2024-03-07T06:30:35;-3.10;99.90
12384;DHT22;6256;63.808;20.336;2024-03-07T06:33:01;-3.00;99.90
12384;DHT22;6256;63.808;20.336;2024-03-07T06:35:27;-3.00;99.90
12384;DHT22;6256;63.808;20.336;2024-03-07T06:37:53;-3.10;99.90
12384;DHT22;6256;63.808;20.336;2024-03-07T06:40:18;-3.10;99.90
12384;DHT22;6256;63.808;20.336;2024-03-07T06:42:50;-3.00;99.90
12384;DHT22;6256;63.808;20.336;2024-03-07T06:45:18;-2.90;99.90
12384;DHT22;6256;63.808;20.336;2024-03-07T06:47:44;-2.90;99.90
12384;DHT22;6256;63.808;20.336;2024-03-07T06:50:10;-2.70;99.90
12384;DHT22;6256;63.808;20.336;2024-03-07T06:52:40;-2.60;99.90
12384;DHT22;6256;63.808;20.336;2024-03-07T06:55:06;-2.90;99.90
12384;DHT22;6256;63.808;20.336;2024-03-07T06:57:33;-2.90;99.90
12384;DHT22;6256;63.808;20.336;2024-03-07T07:00:02;-2.80;99.90
12384;DHT22;6256;63.808;20.336;2024-03-07T07:02:40;-2.70;99.90
12384;DHT22;6256;63.808;20.336;2024-03-07T07:05:10;-2.70;99.90
12384;DHT22;6256;63.808;20.336;2024-03-07T07:07:47;-2.70;99.90
12384;DHT22;6256;63.808;20.336;2024-03-07T07:10:14;-2.70;99.90
12384;DHT22;6256;63.808;20.336;2024-03-07T07:12:45;-2.70;99.90
12384;DHT22;6256;63.808;20.336;2024-03-07T07:15:12;-2.60;99.90
12384;DHT22;6256;63.808;20.336;2024-03-07T07:17:38;-2.70;99.90
12384;DHT22;6256;63.808;20.336;2024-03-07T07:20:05;-2.70;99.90
12384;DHT22;6256;63.808;20.336;2024-03-07T07:22:40;-2.70;99.90
12384;DHT22;6256;63.808;20.336;2024-03-07T07:25:06;-2.70;99.90
12384;DHT22;6256;63.808;20.336;2024-03-07T07:27:40;-2.70;99.90
12384;DHT22;6256;63.808;20.336;2024-03-07T07:30:08;-2.70;99.90
12384;DHT22;6256;63.808;20.336;2024-03-07T07:32:35;-2.70;99.90
12384;DHT22;6256;63.808;20.336;2024-03-07T07:35:02;-2.70;99.90
12384;DHT22;6256;63.808;20.336;2024-03-07T07:37:27;-2.70;99.90
12384;DHT22;6256;63.808;20.336;2024-03-07T07:39:53;-2.60;99.90
12384;DHT22;6256;63.808;20.336;2024-03-07T07:42:19;-2.60;99.90
12384;DHT22;6256;63.808;20.336;2024-03-07T07:44:45;-2.70;99.90
12384;DHT22;6256;63.808;20.336;2024-03-07T07:47:11;-2.60;99.90
12384;DHT22;6256;63.808;20.336;2024-03-07T07:49:40;-2.70;99.90
12384;DHT22;6256;63.808;20.336;2024-03-07T07:52:07;-2.80;99.90
12384;DHT22;6256;63.808;20.336;2024-03-07T07:54:34;-2.80;99.90
12384;DHT22;6256;63.808;20.336;2024-03-07T07:56:59;-2.90;99.90
12384;DHT22;6256;63.808;20.336;2024-03-07T07:59:25;-2.80;99.90
12384;DHT22;6256;63.808;20.336;2024-03-07T08:01:51;-3.10;99.90
12384;DHT22;6256;63.808;20.336;2024-03-07T08:04:18;-3.00;99.90
12384;DHT22;6256;63.808;20.336;2024-03-07T08:09:10;-2.50;99.90
12384;DHT22;6256;63.808;20.336;2024-03-07T08:11:36;-2.30;99.90
12384;DHT22;6256;63.808;20.336;2024-03-07T08:14:04;-2.40;99.90
12384;DHT22;6256;63.808;20.336;2024-03-07T08:16:31;-2.30;99.90
12384;DHT22;6256;63.808;20.336;2024-03-07T08:18:57;-2.60;99.90
12384;DHT22;6256;63.808;20.336;2024-03-07T08:21:23;-2.40;99.90
12384;DHT22;6256;63.808;20.336;2024-03-07T08:23:49;-2.30;99.90
12384;DHT22;6256;63.808;20.336;2024-03-07T08:26:14;-2.40;99.90
12384;DHT22;6256;63.808;20.336;2024-03-07T08:28:41;-2.30;99.90
12384;DHT22;6256;63.808;20.336;2024-03-07T08:31:07;-2.40;99.90
12384;DHT22;6256;63.808;20.336;2024-03-07T08:33:35;-2.30;99.90
12384;DHT22;6256;63.808;20.336;2024-03-07T08:36:00;-2.20;99.90
12384;DHT22;6256;63.808;20.336;2024-03-07T08:38:26;-2.10;99.90
12384;DHT22;6256;63.808;20.336;2024-03-07T08:40:52;-2.00;99.90
12384;DHT22;6256;63.808;20.336;2024-03-07T08:43:18;-2.00;99.90
12384;DHT22;6256;63.808;20.336;2024-03-07T08:45:44;-2.10;99.90
12384;DHT22;6256;63.808;20.336;2024-03-07T08:48:09;-2.10;99.90
12384;DHT22;6256;63.808;20.336;2024-03-07T08:50:36;-1.80;99.90
12384;DHT22;6256;63.808;20.336;2024-03-07T08:53:03;-1.90;99.90
12384;DHT22;6256;63.808;20.336;2024-03-07T08:55:32;-1.90;99.90
12384;DHT22;6256;63.808;20.336;2024-03-07T08:57:58;-1.70;99.90
12384;DHT22;6256;63.808;20.336;2024-03-07T09:00:24;-1.70;99.90
12384;DHT22;6256;63.808;20.336;2024-03-07T09:02:50;-1.50;99.90
12384;DHT22;6256;63.808;20.336;2024-03-07T09:05:18;-1.40;99.90
12384;DHT22;6256;63.808;20.336;2024-03-07T09:07:44;-1.20;99.90
12384;DHT22;6256;63.808;20.336;2024-03-07T09:10:15;-1.00;99.90
12384;DHT22;6256;63.808;20.336;2024-03-07T09:12:41;-0.90;99.90
12384;DHT22;6256;63.808;20.336;2024-03-07T09:15:07;-0.90;99.90
12384;DHT22;6256;63.808;20.336;2024-03-07T09:17:36;-0.80;99.90
12384;DHT22;6256;63.808;20.336;2024-03-07T09:20:03;-0.70;99.90
12384;DHT22;6256;63.808;20.336;2024-03-07T09:22:30;-0.60;99.90
12384;DHT22;6256;63.808;20.336;2024-03-07T09:24:57;-0.50;99.90
12384;DHT22;6256;63.808;20.336;2024-03-07T09:27:23;-0.50;99.90
12384;DHT22;6256;63.808;20.336;2024-03-07T09:32:14;-0.30;99.90
12384;DHT22;6256;63.808;20.336;2024-03-07T09:34:40;-0.20;99.90
12384;DHT22;6256;63.808;20.336;2024-03-07T09:39:35;-0.10;99.90
12384;DHT22;6256;63.808;20.336;2024-03-07T09:42:02;-0.30;99.90
12384;DHT22;6256;63.808;20.336;2024-03-07T09:44:28;-0.20;99.90
12384;DHT22;6256;63.808;20.336;2024-03-07T09:46:55;-0.30;99.90
12384;DHT22;6256;63.808;20.336;2024-03-07T09:49:25;-0.30;99.90
12384;DHT22;6256;63.808;20.336;2024-03-07T09:51:51;-0.70;99.90
12384;DHT22;6256;63.808;20.336;2024-03-07T09:54:20;-0.70;99.90
12384;DHT22;6256;63.808;20.336;2024-03-07T09:56:47;-0.40;99.90
12384;DHT22;6256;63.808;20.336;2024-03-07T09:59:18;-0.10;99.90
12384;DHT22;6256;63.808;20.336;2024-03-07T10:01:47;0.20;99.90
12384;DHT22;6256;63.808;20.336;2024-03-07T10:04:15;0.30;99.90
12384;DHT22;6256;63.808;20.336;2024-03-07T10:06:43;0.40;99.90
12384;DHT22;6256;63.808;20.336;2024-03-07T10:11:43;0.70;99.90
12384;DHT22;6256;63.808;20.336;2024-03-07T10:14:11;0.70;99.90
12384;DHT22;6256;63.808;20.336;2024-03-07T10:16:37;0.30;99.90
12384;DHT22;6256;63.808;20.336;2024-03-07T10:19:07;0.20;99.90
12384;DHT22;6256;63.808;20.336;2024-03-07T10:21:35;0.20;99.90
12384;DHT22;6256;63.808;20.336;2024-03-07T10:24:09;0.20;99.90
12384;DHT22;6256;63.808;20.336;2024-03-07T10:26:37;0.30;99.90
12384;DHT22;6256;63.808;20.336;2024-03-07T10:29:07;0.60;99.90
12384;DHT22;6256;63.808;20.336;2024-03-07T10:31:35;0.70;99.90
12384;DHT22;6256;63.808;20.336;2024-03-07T10:34:04;0.80;99.90
12384;DHT22;6256;63.808;20.336;2024-03-07T10:36:31;0.90;99.90
12384;DHT22;6256;63.808;20.336;2024-03-07T10:39:00;1.00;99.90
12384;DHT22;6256;63.808;20.336;2024-03-07T10:41:46;0.90;99.90
12384;DHT22;6256;63.808;20.336;2024-03-07T10:44:24;0.80;99.90
12384;DHT22;6256;63.808;20.336;2024-03-07T10:46:58;1.00;99.90
12384;DHT22;6256;63.808;20.336;2024-03-07T10:49:32;1.10;99.90
12384;DHT22;6256;63.808;20.336;2024-03-07T10:52:04;1.10;99.90
12384;DHT22;6256;63.808;20.336;2024-03-07T10:54:58;1.00;99.90
12384;DHT22;6256;63.808;20.336;2024-03-07T10:57:41;1.20;99.90
12384;DHT22;6256;63.808;20.336;2024-03-07T11:00:12;1.40;99.90
12384;DHT22;6256;63.808;20.336;2024-03-07T11:03:01;1.50;99.90
12384;DHT22;6256;63.808;20.336;2024-03-07T11:05:28;1.20;99.90
12384;DHT22;6256;63.808;20.336;2024-03-07T11:08:01;1.30;99.90
12384;DHT22;6256;63.808;20.336;2024-03-07T11:10:40;1.60;99.90
12384;DHT22;6256;63.808;20.336;2024-03-07T11:13:12;1.50;99.90
12384;DHT22;6256;63.808;20.336;2024-03-07T11:15:41;1.70;99.90
12384;DHT22;6256;63.808;20.336;2024-03-07T11:18:07;1.80;99.90
12384;DHT22;6256;63.808;20.336;2024-03-07T11:20:39;1.90;99.90
12384;DHT22;6256;63.808;20.336;2024-03-07T11:23:24;1.60;99.90
12384;DHT22;6256;63.808;20.336;2024-03-07T11:25:54;1.80;99.90
12384;DHT22;6256;63.808;20.336;2024-03-07T11:28:19;1.90;99.90
12384;DHT22;6256;63.808;20.336;2024-03-07T11:30:53;2.00;99.90
12384;DHT22;6256;63.808;20.336;2024-03-07T11:33:18;2.00;99.90
12384;DHT22;6256;63.808;20.336;2024-03-07T11:35:49;2.20;99.90
12384;DHT22;6256;63.808;20.336;2024-03-07T11:38:15;2.30;99.90
12384;DHT22;6256;63.808;20.336;2024-03-07T11:43:11;2.50;99.90
12384;DHT22;6256;63.808;20.336;2024-03-07T11:45:38;2.60;99.90
12384;DHT22;6256;63.808;20.336;2024-03-07T11:48:10;2.60;99.90
12384;DHT22;6256;63.808;20.336;2024-03-07T11:50:37;2.70;99.90
12384;DHT22;6256;63.808;20.336;2024-03-07T11:53:04;2.70;99.90
12384;DHT22;6256;63.808;20.336;2024-03-07T11:55:38;3.10;99.90
12384;DHT22;6256;63.808;20.336;2024-03-07T11:58:20;3.70;99.90
12384;DHT22;6256;63.808;20.336;2024-03-07T12:03:18;5.00;99.90
12384;DHT22;6256;63.808;20.336;2024-03-07T12:05:47;5.50;99.90
12384;DHT22;6256;63.808;20.336;2024-03-07T12:08:13;5.80;99.90
12384;DHT22;6256;63.808;20.336;2024-03-07T12:10:40;5.80;99.90
12384;DHT22;6256;63.808;20.336;2024-03-07T12:13:12;5.80;99.90
12384;DHT22;6256;63.808;20.336;2024-03-07T12:15:41;6.20;99.90
12384;DHT22;6256;63.808;20.336;2024-03-07T12:18:08;6.40;99.90
12384;DHT22;6256;63.808;20.336;2024-03-07T12:20:41;6.40;99.90
12384;DHT22;6256;63.808;20.336;2024-03-07T12:23:08;6.30;99.90
12384;DHT22;6256;63.808;20.336;2024-03-07T12:25:35;6.10;99.90
12384;DHT22;6256;63.808;20.336;2024-03-07T12:28:09;5.90;99.90
12384;DHT22;6256;63.808;20.336;2024-03-07T12:30:54;5.50;99.90
12384;DHT22;6256;63.808;20.336;2024-03-07T12:33:22;4.90;99.90
12384;DHT22;6256;63.808;20.336;2024-03-07T12:35:52;4.70;99.90
12384;DHT22;6256;63.808;20.336;2024-03-07T12:38:19;4.40;99.90
12384;DHT22;6256;63.808;20.336;2024-03-07T12:40:45;4.10;99.90
12384;DHT22;6256;63.808;20.336;2024-03-07T12:43:21;3.90;99.90
12384;DHT22;6256;63.808;20.336;2024-03-07T12:45:51;3.70;99.90
12384;DHT22;6256;63.808;20.336;2024-03-07T12:48:18;3.50;99.90
12384;DHT22;6256;63.808;20.336;2024-03-07T12:50:47;3.60;99.90
12384;DHT22;6256;63.808;20.336;2024-03-07T12:53:16;3.60;99.90
12384;DHT22;6256;63.808;20.336;2024-03-07T12:55:43;3.70;99.90
12384;DHT22;6256;63.808;20.336;2024-03-07T12:58:12;3.70;99.90
12384;DHT22;6256;63.808;20.336;2024-03-07T13:00:39;3.70;99.90
12384;DHT22;6256;63.808;20.336;2024-03-07T13:03:07;3.70;99.90
12384;DHT22;6256;63.808;20.336;2024-03-07T13:05:34;3.70;99.90
12384;DHT22;6256;63.808;20.336;2024-03-07T13:07:59;3.70;99.90
12384;DHT22;6256;63.808;20.336;2024-03-07T13:10:25;3.70;99.90
12384;DHT22;6256;63.808;20.336;2024-03-07T13:12:51;3.60;99.90
12384;DHT22;6256;63.808;20.336;2024-03-07T13:15:18;3.50;99.90
12384;DHT22;6256;63.808;20.336;2024-03-07T13:17:44;3.50;99.90
12384;DHT22;6256;63.808;20.336;2024-03-07T13:20:11;3.40;99.90
12384;DHT22;6256;63.808;20.336;2024-03-07T13:22:44;3.30;99.90
12384;DHT22;6256;63.808;20.336;2024-03-07T13:25:23;3.20;99.90
12384;DHT22;6256;63.808;20.336;2024-03-07T13:30:39;2.90;99.90
12384;DHT22;6256;63.808;20.336;2024-03-07T13:33:05;2.80;99.90
12384;DHT22;6256;63.808;20.336;2024-03-07T13:35:31;2.70;99.90
12384;DHT22;6256;63.808;20.336;2024-03-07T13:37:57;2.60;99.90
12384;DHT22;6256;63.808;20.336;2024-03-07T13:40:24;2.50;99.90
12384;DHT22;6256;63.808;20.336;2024-03-07T13:42:56;2.40;99.90
12384;DHT22;6256;63.808;20.336;2024-03-07T13:45:26;2.30;99.90
12384;DHT22;6256;63.808;20.336;2024-03-07T13:47:53;2.10;99.90
12384;DHT22;6256;63.808;20.336;2024-03-07T13:50:22;2.00;99.90
12384;DHT22;6256;63.808;20.336;2024-03-07T13:52:48;2.00;99.90
12384;DHT22;6256;63.808;20.336;2024-03-07T14:10:03;1.80;99.90
12384;DHT22;6256;63.808;20.336;2024-03-07T14:13:06;1.70;99.90
12384;DHT22;6256;63.808;20.336;2024-03-07T14:15:45;1.60;99.90
12384;DHT22;6256;63.808;20.336;2024-03-07T14:21:58;1.50;99.90
12384;DHT22;6256;63.808;20.336;2024-03-07T14:24:59;1.50;99.90
12384;DHT22;6256;63.808;20.336;2024-03-07T14:27:39;1.40;99.90
12384;DHT22;6256;63.808;20.336;2024-03-07T14:30:27;1.40;99.90
12384;DHT22;6256;63.808;20.336;2024-03-07T14:32:59;1.20;99.90
12384;DHT22;6256;63.808;20.336;2024-03-07T14:40:32;1.10;99.90
12384;DHT22;6256;63.808;20.336;2024-03-07T14:43:01;1.00;99.90
12384;DHT22;6256;63.808;20.336;2024-03-07T14:45:36;0.90;99.90
12384;DHT22;6256;63.808;20.336;2024-03-07T14:48:02;0.90;99.90
12384;DHT22;6256;63.808;20.336;2024-03-07T14:50:30;0.90;99.90
12384;DHT22;6256;63.808;20.336;2024-03-07T14:52:58;0.70;99.90
12384;DHT22;6256;63.808;20.336;2024-03-07T14:55:24;0.70;99.90
12384;DHT22;6256;63.808;20.336;2024-03-07T14:57:50;0.60;99.90
12384;DHT22;6256;63.808;20.336;2024-03-07T15:00:16;0.50;99.90
12384;DHT22;6256;63.808;20.336;2024-03-07T15:02:48;0.50;99.90
12384;DHT22;6256;63.808;20.336;2024-03-07T15:05:15;0.40;99.90
12384;DHT22;6256;63.808;20.336;2024-03-07T15:07:43;0.40;99.90
12384;DHT22;6256;63.808;20.336;2024-03-07T15:10:16;0.30;99.90
12384;DHT22;6256;63.808;20.336;2024-03-07T15:12:45;0.20;99.90
12384;DHT22;6256;63.808;20.336;2024-03-07T15:15:16;0.10;99.90
12384;DHT22;6256;63.808;20.336;2024-03-07T15:17:44;0.00;99.90
12384;DHT22;6256;63.808;20.336;2024-03-07T15:22:52;-0.20;99.90
12384;DHT22;6256;63.808;20.336;2024-03-07T15:27:45;-0.50;99.90
12384;DHT22;6256;63.808;20.336;2024-03-07T15:30:15;-0.60;99.90
12384;DHT22;6256;63.808;20.336;2024-03-07T15:32:41;-0.60;99.90
12384;DHT22;6256;63.808;20.336;2024-03-07T15:35:11;-0.70;99.90
12384;DHT22;6256;63.808;20.336;2024-03-07T15:37:44;-0.70;99.90
12384;DHT22;6256;63.808;20.336;2024-03-07T15:40:11;-0.70;99.90
12384;DHT22;6256;63.808;20.336;2024-03-07T15:42:41;-0.70;99.90
12384;DHT22;6256;63.808;20.336;2024-03-07T15:45:08;-0.80;99.90
12384;DHT22;6256;63.808;20.336;2024-03-07T15:48:01;-0.90;99.90
12384;DHT22;6256;63.808;20.336;2024-03-07T15:50:36;-1.00;99.90
12384;DHT22;6256;63.808;20.336;2024-03-07T15:53:03;-1.10;99.90
12384;DHT22;6256;63.808;20.336;2024-03-07T15:55:30;-1.00;99.90
12384;DHT22;6256;63.808;20.336;2024-03-07T15:58:01;-1.20;99.90
12384;DHT22;6256;63.808;20.336;2024-03-07T16:00:31;-1.20;99.90
12384;DHT22;6256;63.808;20.336;2024-03-07T16:03:01;-1.20;99.90
12384;DHT22;6256;63.808;20.336;2024-03-07T16:05:30;-1.30;99.90
12384;DHT22;6256;63.808;20.336;2024-03-07T16:07:58;-1.30;99.90
12384;DHT22;6256;63.808;20.336;2024-03-07T16:10:29;-1.30;99.90
12384;DHT22;6256;63.808;20.336;2024-03-07T16:13:05;-1.30;99.90
12384;DHT22;6256;63.808;20.336;2024-03-07T16:15:35;-1.40;99.90
12384;DHT22;6256;63.808;20.336;2024-03-07T16:18:01;-1.40;99.90
12384;DHT22;6256;63.808;20.336;2024-03-07T16:20:31;-1.50;99.90
12384;DHT22;6256;63.808;20.336;2024-03-07T16:22:59;-1.50;99.90
12384;DHT22;6256;63.808;20.336;2024-03-07T16:25:25;-1.50;99.90
12384;DHT22;6256;63.808;20.336;2024-03-07T16:27:52;-1.70;99.90
12384;DHT22;6256;63.808;20.336;2024-03-07T16:30:23;-1.70;99.90